Aline, OK

9:40 PM CDT on May 05, 2015 (GMT -0500)
Enid | | Change Station
CLOSE
Current Station
Airport
Location: Enid,
Elevation: 1168 ft
Nearby Weather Stations

Elev 1168 ft 36.38 °N, 97.79 °W | Updated 25 minutes ago

Rain
Rain
64 °F
Feels Like 64 °F
N
8
Wind Variable Wind from ESE

Today
High -- | Low -- °F
--% Chance of Precip.
Yesterday
High -- | Low -- °F
Precip. -- in
6:36 AM 8:25 PM
Waning Gibbous, 96% visible
Pressure 29.89 in
Visibility 7.0 miles
Clouds Scattered Clouds 2400 ft
Mostly Cloudy 3400 ft
Overcast 11000 ft
Dew Point 63 °F
Humidity 94%
Rainfall 0.04 in
Snow Depth Not available.
UV 0 out of 12
Pollen 8.10 out of 12
Air Quality Not available.
Flu Activity Local Activity
METAR KWDG 060215Z AUTO 12007KT 7SM -RA SCT024 BKN034 OVC110 18/17 A2989 RMK AO2 P0004 LTG DSNT S AND SW

More Conditions Fewer Conditions

Pressure 29.89 in
Visibility 7.0 miles
Clouds Scattered Clouds 2400 ft
Mostly Cloudy 3400 ft
Overcast 11000 ft
Dew Point 63 °F
Humidity 94%
Rainfall 0.04 in
Snow Depth Not available.
UV 0 out of 12
Pollen 8.10 out of 12
Air Quality Not available.
Flu Activity Local Activity
METAR KWDG 060215Z AUTO 12007KT 7SM -RA SCT024 BKN034 OVC110 18/17 A2989 RMK AO2 P0004 LTG DSNT S AND SW

More Conditions Fewer Conditions

10-Day Weather Forecast

Almanac

Astronomy

May. 05, 2015 Rise Set
Actual Time
Civil Twilight
Nautical Twilight
Astronomical Twilight
Moon
Length of Visible Light
Length of Day
Tomorrow will be .
, % of the Moon is Illuminated

Today's Extremes

State Highs State Lows

Community

WunderPhotos

Upload Photos

1,819,049 photos uploaded!

WunderBlogs® & News

Nearby

Air Quality

  Air Quality AQ Index Pollutant
Not available.

Snow Depth

Station Depth Elevation

Earthquake Activity

City Distance Mag. Time & Date
Minimum magnitude displayed is 2.5.

Coastal Water Temperatures

Place Temperature

Stations

Nearby Weather Stations

Station Location Temp. Windchill Dew Point Humidity Wind Precip. Elev Updated Type